Reidsville, North Carolina
Current Conditions -  °F | °C
As of 3:55 PM on Thursday 20 Nov 2014 (Local Time) from KSIF Reporting Station
Clear Clear  
Wind Chill: 56°   Ceiling: Unl
Heat Index: 56°   Visibility: 10mi
Dew Point: 23°   Wind: 15mph
Humidity: 28%   Direction: 260°W
Pressure: 30.01"   Gusts: 23mph
Location:  36.36°N, 79.66°W
Report Text: KSIF 202055Z AUTO 26013G20KT 230V290 10SM CLR 13/M05 A3001 RMK AO2 T01341051
Loading
Personal Weather Stations






























Interactive Weather Map New forecast layout! Learn more

10-Day Weather Forecast

Advertisements
Track Severe Weather on mobile